sensor_id;sensor_type;location;lat;lon;timestamp;pressure;altitude;pressure_sealevel;temperature;humidity
62708;BME280;48769;51.624;5.886;2022-12-08T00:01:22;100936.00;;;6.02;98.78
62708;BME280;48769;51.624;5.886;2022-12-08T00:03:48;100929.03;;;6.01;98.91
62708;BME280;48769;51.624;5.886;2022-12-08T00:06:32;100934.50;;;5.95;99.56
62708;BME280;48769;51.624;5.886;2022-12-08T00:09:29;100928.28;;;5.97;99.59
62708;BME280;48769;51.624;5.886;2022-12-08T00:14:33;100919.47;;;6.00;99.76
62708;BME280;48769;51.624;5.886;2022-12-08T00:17:00;100912.34;;;6.03;100.00
62708;BME280;48769;51.624;5.886;2022-12-08T00:19:26;100911.31;;;6.09;100.00
62708;BME280;48769;51.624;5.886;2022-12-08T00:21:53;100905.09;;;6.12;100.00
62708;BME280;48769;51.624;5.886;2022-12-08T00:24:19;100906.66;;;6.17;100.00
62708;BME280;48769;51.624;5.886;2022-12-08T00:26:46;100901.31;;;6.20;100.00
62708;BME280;48769;51.624;5.886;2022-12-08T00:29:12;100898.59;;;6.23;99.49
62708;BME280;48769;51.624;5.886;2022-12-08T00:31:37;100893.63;;;6.14;99.87
62708;BME280;48769;51.624;5.886;2022-12-08T00:34:03;100899.66;;;6.18;100.00
62708;BME280;48769;51.624;5.886;2022-12-08T00:36:29;100898.75;;;6.19;100.00
62708;BME280;48769;51.624;5.886;2022-12-08T00:38:55;100903.94;;;6.20;100.00
62708;BME280;48769;51.624;5.886;2022-12-08T00:41:22;100902.03;;;6.25;100.00
62708;BME280;48769;51.624;5.886;2022-12-08T00:44:09;100881.03;;;6.25;100.00
62708;BME280;48769;51.624;5.886;2022-12-08T00:46:35;100884.78;;;6.18;99.21
62708;BME280;48769;51.624;5.886;2022-12-08T00:49:01;100881.53;;;6.10;99.62
62708;BME280;48769;51.624;5.886;2022-12-08T00:51:26;100879.00;;;6.07;100.00
62708;BME280;48769;51.624;5.886;2022-12-08T00:53:52;100881.63;;;6.07;100.00
62708;BME280;48769;51.624;5.886;2022-12-08T00:56:17;100878.06;;;6.09;99.91
62708;BME280;48769;51.624;5.886;2022-12-08T00:58:42;100879.72;;;6.12;100.00
62708;BME280;48769;51.624;5.886;2022-12-08T01:01:12;100870.84;;;6.16;100.00
62708;BME280;48769;51.624;5.886;2022-12-08T01:03:38;100868.22;;;6.16;100.00
62708;BME280;48769;51.624;5.886;2022-12-08T01:06:03;100861.38;;;6.12;100.00
62708;BME280;48769;51.624;5.886;2022-12-08T01:08:29;100859.59;;;6.13;100.00
62708;BME280;48769;51.624;5.886;2022-12-08T01:10:54;100862.28;;;6.11;100.00
62708;BME280;48769;51.624;5.886;2022-12-08T01:13:20;100863.06;;;6.13;100.00
62708;BME280;48769;51.624;5.886;2022-12-08T01:15:45;100864.78;;;6.14;100.00
62708;BME280;48769;51.624;5.886;2022-12-08T01:18:10;100862.16;;;6.14;100.00
62708;BME280;48769;51.624;5.886;2022-12-08T01:20:36;100858.75;;;6.12;100.00
62708;BME280;48769;51.624;5.886;2022-12-08T01:23:01;100854.19;;;6.17;100.00
62708;BME280;48769;51.624;5.886;2022-12-08T01:25:26;100854.06;;;6.22;100.00
62708;BME280;48769;51.624;5.886;2022-12-08T01:27:52;100858.47;;;6.21;100.00
62708;BME280;48769;51.624;5.886;2022-12-08T01:30:18;100865.31;;;6.25;100.00
62708;BME280;48769;51.624;5.886;2022-12-08T01:32:43;100861.66;;;6.29;100.00
62708;BME280;48769;51.624;5.886;2022-12-08T01:35:09;100866.81;;;6.32;100.00
62708;BME280;48769;51.624;5.886;2022-12-08T01:37:34;100865.84;;;6.35;100.00
62708;BME280;48769;51.624;5.886;2022-12-08T01:39:59;100858.16;;;6.30;100.00
62708;BME280;48769;51.624;5.886;2022-12-08T01:42:25;100858.16;;;6.30;99.99
62708;BME280;48769;51.624;5.886;2022-12-08T01:44:57;100851.97;;;6.31;99.92
62708;BME280;48769;51.624;5.886;2022-12-08T01:47:26;100846.84;;;6.28;99.84
62708;BME280;48769;51.624;5.886;2022-12-08T01:49:53;100845.78;;;6.34;99.58
62708;BME280;48769;51.624;5.886;2022-12-08T01:52:24;100851.06;;;6.32;99.71
62708;BME280;48769;51.624;5.886;2022-12-08T01:54:55;100848.50;;;6.31;99.63
62708;BME280;48769;51.624;5.886;2022-12-08T01:57:29;100850.97;;;6.36;100.00
62708;BME280;48769;51.624;5.886;2022-12-08T02:00:06;100851.81;;;6.36;100.00
62708;BME280;48769;51.624;5.886;2022-12-08T02:02:38;100842.41;;;6.30;100.00
62708;BME280;48769;51.624;5.886;2022-12-08T02:05:05;100843.47;;;6.25;100.00
62708;BME280;48769;51.624;5.886;2022-12-08T02:07:30;100840.69;;;6.29;100.00
62708;BME280;48769;51.624;5.886;2022-12-08T02:09:56;100833.72;;;6.28;100.00
62708;BME280;48769;51.624;5.886;2022-12-08T02:12:21;100831.19;;;6.25;100.00
62708;BME280;48769;51.624;5.886;2022-12-08T02:14:47;100827.72;;;6.25;100.00
62708;BME280;48769;51.624;5.886;2022-12-08T02:17:52;100824.34;;;6.21;100.00
62708;BME280;48769;51.624;5.886;2022-12-08T02:23:19;100809.66;;;6.16;100.00
62708;BME280;48769;51.624;5.886;2022-12-08T02:27:10;100811.38;;;6.17;100.00
62708;BME280;48769;51.624;5.886;2022-12-08T02:29:42;100803.56;;;6.15;100.00
62708;BME280;48769;51.624;5.886;2022-12-08T02:33:18;100793.19;;;6.12;100.00
62708;BME280;48769;51.624;5.886;2022-12-08T02:35:29;100791.31;;;6.16;100.00
62708;BME280;48769;51.624;5.886;2022-12-08T02:40:59;100786.81;;;6.19;100.00
62708;BME280;48769;51.624;5.886;2022-12-08T02:46:00;100786.81;;;6.19;100.00
62708;BME280;48769;51.624;5.886;2022-12-08T02:48:27;100779.88;;;6.18;100.00
62708;BME280;48769;51.624;5.886;2022-12-08T02:50:53;100776.28;;;6.21;100.00
62708;BME280;48769;51.624;5.886;2022-12-08T02:53:19;100768.44;;;6.19;100.00
62708;BME280;48769;51.624;5.886;2022-12-08T03:02:07;100757.03;;;6.20;100.00
62708;BME280;48769;51.624;5.886;2022-12-08T03:04:49;100751.78;;;6.20;100.00
62708;BME280;48769;51.624;5.886;2022-12-08T03:12:45;100748.53;;;6.14;100.00
62708;BME280;48769;51.624;5.886;2022-12-08T03:15:16;100752.19;;;6.09;100.00
62708;BME280;48769;51.624;5.886;2022-12-08T03:17:45;100754.63;;;6.14;100.00
62708;BME280;48769;51.624;5.886;2022-12-08T03:20:14;100758.88;;;6.18;100.00
62708;BME280;48769;51.624;5.886;2022-12-08T03:22:41;100752.72;;;6.19;100.00
62708;BME280;48769;51.624;5.886;2022-12-08T03:25:12;100745.81;;;6.17;100.00
62708;BME280;48769;51.624;5.886;2022-12-08T03:27:38;100746.81;;;6.13;100.00
62708;BME280;48769;51.624;5.886;2022-12-08T03:30:05;100741.25;;;6.22;100.00
62708;BME280;48769;51.624;5.886;2022-12-08T03:35:03;100739.78;;;6.15;100.00
62708;BME280;48769;51.624;5.886;2022-12-08T03:37:30;100740.56;;;6.17;100.00
62708;BME280;48769;51.624;5.886;2022-12-08T03:39:55;100735.81;;;6.28;100.00
62708;BME280;48769;51.624;5.886;2022-12-08T03:42:21;100734.84;;;6.30;100.00
62708;BME280;48769;51.624;5.886;2022-12-08T03:44:46;100740.88;;;6.32;100.00
62708;BME280;48769;51.624;5.886;2022-12-08T03:47:11;100731.97;;;6.37;100.00
62708;BME280;48769;51.624;5.886;2022-12-08T03:49:37;100728.56;;;6.35;100.00
62708;BME280;48769;51.624;5.886;2022-12-08T03:52:02;100725.25;;;6.29;100.00
62708;BME280;48769;51.624;5.886;2022-12-08T03:54:28;100716.69;;;6.24;100.00
62708;BME280;48769;51.624;5.886;2022-12-08T03:56:53;100717.44;;;6.28;100.00
62708;BME280;48769;51.624;5.886;2022-12-08T03:59:18;100718.63;;;6.19;100.00
62708;BME280;48769;51.624;5.886;2022-12-08T04:01:44;100713.59;;;6.13;100.00
62708;BME280;48769;51.624;5.886;2022-12-08T04:04:09;100706.31;;;6.21;100.00
62708;BME280;48769;51.624;5.886;2022-12-08T04:06:37;100710.72;;;6.21;100.00
62708;BME280;48769;51.624;5.886;2022-12-08T04:09:03;100699.13;;;6.26;100.00
62708;BME280;48769;51.624;5.886;2022-12-08T04:11:28;100700.75;;;6.30;100.00
62708;BME280;48769;51.624;5.886;2022-12-08T04:13:53;100700.03;;;6.25;100.00
62708;BME280;48769;51.624;5.886;2022-12-08T04:16:22;100697.25;;;6.30;100.00
62708;BME280;48769;51.624;5.886;2022-12-08T04:18:48;100698.25;;;6.26;100.00
62708;BME280;48769;51.624;5.886;2022-12-08T04:21:14;100705.28;;;6.25;100.00
62708;BME280;48769;51.624;5.886;2022-12-08T04:23:39;100698.25;;;6.26;100.00
62708;BME280;48769;51.624;5.886;2022-12-08T04:26:05;100701.72;;;6.28;100.00
62708;BME280;48769;51.624;5.886;2022-12-08T04:28:30;100686.94;;;6.25;100.00
62708;BME280;48769;51.624;5.886;2022-12-08T04:30:56;100684.13;;;6.30;100.00
62708;BME280;48769;51.624;5.886;2022-12-08T04:33:22;100685.84;;;6.31;100.00
62708;BME280;48769;51.624;5.886;2022-12-08T04:35:47;100692.63;;;6.37;100.00
62708;BME280;48769;51.624;5.886;2022-12-08T04:38:13;100692.28;;;6.46;100.00
62708;BME280;48769;51.624;5.886;2022-12-08T04:40:38;100689.63;;;6.47;100.00
62708;BME280;48769;51.624;5.886;2022-12-08T04:43:04;100691.25;;;6.50;100.00
62708;BME280;48769;51.624;5.886;2022-12-08T04:45:30;100686.94;;;6.49;100.00
62708;BME280;48769;51.624;5.886;2022-12-08T04:47:57;100691.41;;;6.47;100.00
62708;BME280;48769;51.624;5.886;2022-12-08T04:50:23;100684.31;;;6.49;100.00
62708;BME280;48769;51.624;5.886;2022-12-08T04:52:48;100678.31;;;6.45;100.00
62708;BME280;48769;51.624;5.886;2022-12-08T04:55:14;100680.22;;;6.42;100.00
62708;BME280;48769;51.624;5.886;2022-12-08T04:57:39;100684.31;;;6.49;100.00
62708;BME280;48769;51.624;5.886;2022-12-08T05:00:05;100684.41;;;6.46;100.00
62708;BME280;48769;51.624;5.886;2022-12-08T05:02:30;100687.97;;;6.45;100.00
62708;BME280;48769;51.624;5.886;2022-12-08T05:04:56;100674.78;;;6.46;100.00
62708;BME280;48769;51.624;5.886;2022-12-08T05:07:22;100678.53;;;6.39;100.00
62708;BME280;48769;51.624;5.886;2022-12-08T05:09:47;100674.66;;;6.49;100.00
62708;BME280;48769;51.624;5.886;2022-12-08T05:12:12;100679.88;;;6.51;100.00
62708;BME280;48769;51.624;5.886;2022-12-08T05:14:38;100683.56;;;6.45;100.00
62708;BME280;48769;51.624;5.886;2022-12-08T05:17:03;100692.25;;;6.47;100.00
62708;BME280;48769;51.624;5.886;2022-12-08T05:19:28;100694.69;;;6.52;100.00
62708;BME280;48769;51.624;5.886;2022-12-08T05:21:53;100690.13;;;6.57;100.00
62708;BME280;48769;51.624;5.886;2022-12-08T05:24:19;100688.25;;;6.61;100.00
62708;BME280;48769;51.624;5.886;2022-12-08T05:26:44;100679.47;;;6.62;100.00
62708;BME280;48769;51.624;5.886;2022-12-08T05:29:10;100684.66;;;6.63;100.00
62708;BME280;48769;51.624;5.886;2022-12-08T05:31:35;100676.94;;;6.59;100.00
62708;BME280;48769;51.624;5.886;2022-12-08T05:34:01;100666.41;;;6.60;100.00
62708;BME280;48769;51.624;5.886;2022-12-08T05:36:26;100673.25;;;6.64;100.00
62708;BME280;48769;51.624;5.886;2022-12-08T05:38:51;100667.28;;;6.59;100.00
62708;BME280;48769;51.624;5.886;2022-12-08T05:41:19;100661.03;;;6.63;100.00
62708;BME280;48769;51.624;5.886;2022-12-08T05:43:46;100658.31;;;6.66;100.00
62708;BME280;48769;51.624;5.886;2022-12-08T05:46:12;100662.75;;;6.64;100.00
62708;BME280;48769;51.624;5.886;2022-12-08T05:48:37;100659.19;;;6.65;100.00
62708;BME280;48769;51.624;5.886;2022-12-08T05:51:04;100659.41;;;6.59;100.00
62708;BME280;48769;51.624;5.886;2022-12-08T05:53:30;100662.97;;;6.58;100.00
62708;BME280;48769;51.624;5.886;2022-12-08T05:55:55;100667.72;;;6.48;100.00
62708;BME280;48769;51.624;5.886;2022-12-08T05:58:21;100661.44;;;6.52;100.00
62708;BME280;48769;51.624;5.886;2022-12-08T06:00:49;100657.84;;;6.55;100.00
62708;BME280;48769;51.624;5.886;2022-12-08T06:03:16;100661.50;;;6.51;100.00
62708;BME280;48769;51.624;5.886;2022-12-08T06:05:43;100656.19;;;6.52;100.00
62708;BME280;48769;51.624;5.886;2022-12-08T06:08:09;100651.13;;;6.48;100.00
62708;BME280;48769;51.624;5.886;2022-12-08T06:10:40;100652.81;;;6.49;100.00
62708;BME280;48769;51.624;5.886;2022-12-08T06:13:05;100651.78;;;6.29;100.00
62708;BME280;48769;51.624;5.886;2022-12-08T06:15:33;100646.41;;;6.34;100.00
62708;BME280;48769;51.624;5.886;2022-12-08T06:17:58;100647.25;;;6.35;100.00
62708;BME280;48769;51.624;5.886;2022-12-08T06:20:24;100656.00;;;6.33;100.00
62708;BME280;48769;51.624;5.886;2022-12-08T06:22:49;100656.19;;;6.29;99.50
62708;BME280;48769;51.624;5.886;2022-12-08T06:25:14;100664.13;;;6.27;99.83
62708;BME280;48769;51.624;5.886;2022-12-08T06:27:40;100663.09;;;6.31;99.96
62708;BME280;48769;51.624;5.886;2022-12-08T06:30:05;100650.00;;;6.30;99.38
62708;BME280;48769;51.624;5.886;2022-12-08T06:32:31;100653.63;;;6.27;99.55
62708;BME280;48769;51.624;5.886;2022-12-08T06:34:56;100655.56;;;6.22;99.15
62708;BME280;48769;51.624;5.886;2022-12-08T06:37:21;100656.50;;;6.20;99.42
62708;BME280;48769;51.624;5.886;2022-12-08T06:39:47;100650.41;;;6.19;99.15
62708;BME280;48769;51.624;5.886;2022-12-08T06:42:12;100648.81;;;6.15;98.96
62708;BME280;48769;51.624;5.886;2022-12-08T06:44:56;100657.03;;;6.06;99.09
62708;BME280;48769;51.624;5.886;2022-12-08T06:47:21;100655.31;;;6.05;99.26
62708;BME280;48769;51.624;5.886;2022-12-08T06:49:47;100652.84;;;6.00;99.24
62708;BME280;48769;51.624;5.886;2022-12-08T06:52:12;100651.81;;;6.04;99.46
62708;BME280;48769;51.624;5.886;2022-12-08T06:54:38;100643.16;;;6.02;99.06
62708;BME280;48769;51.624;5.886;2022-12-08T06:57:03;100640.47;;;6.04;99.58
62708;BME280;48769;51.624;5.886;2022-12-08T06:59:28;100646.56;;;6.04;99.23
62708;BME280;48769;51.624;5.886;2022-12-08T07:01:54;100643.06;;;6.05;99.38
62708;BME280;48769;51.624;5.886;2022-12-08T07:04:19;100643.94;;;6.04;99.21
62708;BME280;48769;51.624;5.886;2022-12-08T07:06:44;100631.94;;;5.99;99.34
62708;BME280;48769;51.624;5.886;2022-12-08T07:09:09;100643.22;;;6.01;99.27
62708;BME280;48769;51.624;5.886;2022-12-08T07:11:37;100647.56;;;6.02;99.21
62708;BME280;48769;51.624;5.886;2022-12-08T07:14:02;100648.34;;;6.04;99.37
62708;BME280;48769;51.624;5.886;2022-12-08T07:16:28;100636.97;;;6.05;99.77
62708;BME280;48769;51.624;5.886;2022-12-08T07:18:53;100649.19;;;6.04;100.00
62708;BME280;48769;51.624;5.886;2022-12-08T07:21:18;100650.84;;;6.07;100.00
62708;BME280;48769;51.624;5.886;2022-12-08T07:23:45;100643.91;;;6.06;99.94
62708;BME280;48769;51.624;5.886;2022-12-08T07:26:12;100638.88;;;6.00;100.00
62708;BME280;48769;51.624;5.886;2022-12-08T07:28:38;100649.16;;;6.06;99.71
62708;BME280;48769;51.624;5.886;2022-12-08T07:31:05;100637.75;;;6.07;99.78
62708;BME280;48769;51.624;5.886;2022-12-08T07:33:32;100644.66;;;6.09;99.81
62708;BME280;48769;51.624;5.886;2022-12-08T07:36:00;100643.16;;;6.02;99.65
62708;BME280;48769;51.624;5.886;2022-12-08T07:38:26;100642.56;;;5.94;99.74
62708;BME280;48769;51.624;5.886;2022-12-08T07:40:52;100645.19;;;5.94;99.96
62708;BME280;48769;51.624;5.886;2022-12-08T07:43:18;100639.06;;;5.95;100.00
62708;BME280;48769;51.624;5.886;2022-12-08T07:45:44;100639.84;;;5.97;100.00
62708;BME280;48769;51.624;5.886;2022-12-08T07:48:09;100639.84;;;5.97;100.00
62708;BME280;48769;51.624;5.886;2022-12-08T07:50:35;100639.81;;;5.99;100.00
62708;BME280;48769;51.624;5.886;2022-12-08T07:53:00;100640.59;;;6.01;100.00
62708;BME280;48769;51.624;5.886;2022-12-08T07:55:25;100636.97;;;6.05;100.00
62708;BME280;48769;51.624;5.886;2022-12-08T07:57:51;100649.03;;;6.09;99.83
62708;BME280;48769;51.624;5.886;2022-12-08T08:00:17;100648.19;;;6.08;99.90
62708;BME280;48769;51.624;5.886;2022-12-08T08:02:43;100646.34;;;6.11;99.63
62708;BME280;48769;51.624;5.886;2022-12-08T08:05:09;100645.59;;;6.07;99.92
62708;BME280;48769;51.624;5.886;2022-12-08T08:07:34;100646.34;;;6.11;99.99
62708;BME280;48769;51.624;5.886;2022-12-08T08:10:01;100641.69;;;6.19;100.00
62708;BME280;48769;51.624;5.886;2022-12-08T08:12:26;100642.56;;;6.19;99.58
62708;BME280;48769;51.624;5.886;2022-12-08T08:14:52;100647.78;;;6.19;99.46
62708;BME280;48769;51.624;5.886;2022-12-08T08:17:17;100649.34;;;6.25;99.65
62708;BME280;48769;51.624;5.886;2022-12-08T08:19:42;100647.69;;;6.22;99.39
62708;BME280;48769;51.624;5.886;2022-12-08T08:22:07;100653.84;;;6.21;99.33
62708;BME280;48769;51.624;5.886;2022-12-08T08:24:33;100656.50;;;6.20;99.72
62708;BME280;48769;51.624;5.886;2022-12-08T08:26:58;100657.16;;;6.26;99.70
62708;BME280;48769;51.624;5.886;2022-12-08T08:29:23;100658.28;;;6.19;99.87
62708;BME280;48769;51.624;5.886;2022-12-08T08:31:49;100658.19;;;6.22;100.00
62708;BME280;48769;51.624;5.886;2022-12-08T08:34:14;100653.63;;;6.27;100.00
62708;BME280;48769;51.624;5.886;2022-12-08T08:36:39;100649.88;;;6.35;99.74
62708;BME280;48769;51.624;5.886;2022-12-08T08:39:05;100646.22;;;6.39;99.65
62708;BME280;48769;51.624;5.886;2022-12-08T08:41:30;100648.38;;;6.27;99.49
62708;BME280;48769;51.624;5.886;2022-12-08T08:43:56;100651.91;;;6.26;99.41
62708;BME280;48769;51.624;5.886;2022-12-08T08:46:21;100642.50;;;6.21;99.48
62708;BME280;48769;51.624;5.886;2022-12-08T08:48:46;100645.69;;;6.29;99.55
62708;BME280;48769;51.624;5.886;2022-12-08T08:51:12;100649.25;;;6.28;99.18
62708;BME280;48769;51.624;5.886;2022-12-08T08:53:38;100650.31;;;6.22;99.09
62708;BME280;48769;51.624;5.886;2022-12-08T08:56:12;100652.13;;;6.20;99.30
62708;BME280;48769;51.624;5.886;2022-12-08T08:58:37;100661.66;;;6.23;98.59
62708;BME280;48769;51.624;5.886;2022-12-08T09:01:03;100664.25;;;6.24;98.76
62708;BME280;48769;51.624;5.886;2022-12-08T09:03:28;100660.00;;;6.20;98.68
62708;BME280;48769;51.624;5.886;2022-12-08T09:05:55;100659.78;;;6.26;99.14
62708;BME280;48769;51.624;5.886;2022-12-08T09:08:21;100656.28;;;6.26;99.48
62708;BME280;48769;51.624;5.886;2022-12-08T09:10:46;100656.69;;;6.39;99.06
62708;BME280;48769;51.624;5.886;2022-12-08T09:13:11;100660.19;;;6.39;98.77
62708;BME280;48769;51.624;5.886;2022-12-08T09:15:37;100660.28;;;6.36;99.08
62708;BME280;48769;51.624;5.886;2022-12-08T09:18:02;100669.25;;;6.30;98.93
62708;BME280;48769;51.624;5.886;2022-12-08T09:20:30;100667.53;;;6.29;98.53
62708;BME280;48769;51.624;5.886;2022-12-08T09:22:55;100659.63;;;6.31;98.53
62708;BME280;48769;51.624;5.886;2022-12-08T09:25:21;100664.91;;;6.29;98.01
62708;BME280;48769;51.624;5.886;2022-12-08T09:27:46;100664.00;;;6.30;98.36
62708;BME280;48769;51.624;5.886;2022-12-08T09:30:12;100671.63;;;6.37;98.85
62708;BME280;48769;51.624;5.886;2022-12-08T09:32:37;100669.59;;;6.45;98.11
62708;BME280;48769;51.624;5.886;2022-12-08T09:35:02;100668.00;;;6.41;98.42
62708;BME280;48769;51.624;5.886;2022-12-08T09:37:28;100660.69;;;6.49;98.46
62708;BME280;48769;51.624;5.886;2022-12-08T09:39:53;100667.53;;;6.53;98.07
62708;BME280;48769;51.624;5.886;2022-12-08T09:42:40;100660.56;;;6.52;97.84
62708;BME280;48769;51.624;5.886;2022-12-08T09:45:12;100661.94;;;6.62;97.88
62708;BME280;48769;51.624;5.886;2022-12-08T09:47:41;100669.69;;;6.65;97.75
62708;BME280;48769;51.624;5.886;2022-12-08T09:50:28;100662.50;;;6.70;96.64
62708;BME280;48769;51.624;5.886;2022-12-08T09:52:59;100658.13;;;6.71;96.23
62708;BME280;48769;51.624;5.886;2022-12-08T09:58:03;100666.41;;;6.60;95.79
62708;BME280;48769;51.624;5.886;2022-12-08T10:00:33;100670.53;;;6.66;96.28
62708;BME280;48769;51.624;5.886;2022-12-08T10:02:59;100663.47;;;6.68;96.00
62708;BME280;48769;51.624;5.886;2022-12-08T10:05:25;100670.78;;;6.60;95.72
62708;BME280;48769;51.624;5.886;2022-12-08T10:08:05;100667.06;;;6.65;96.11
62708;BME280;48769;51.624;5.886;2022-12-08T10:10:42;100661.81;;;6.65;95.92
62708;BME280;48769;51.624;5.886;2022-12-08T10:13:39;100660.41;;;6.57;96.07
62708;BME280;48769;51.624;5.886;2022-12-08T10:16:29;100659.53;;;6.56;95.78
62708;BME280;48769;51.624;5.886;2022-12-08T10:19:14;100651.13;;;6.48;95.71
62708;BME280;48769;51.624;5.886;2022-12-08T10:21:42;100649.53;;;6.44;95.69
62708;BME280;48769;51.624;5.886;2022-12-08T10:24:15;100644.41;;;6.41;95.94
62708;BME280;48769;51.624;5.886;2022-12-08T10:26:43;100637.78;;;6.30;96.23
62708;BME280;48769;51.624;5.886;2022-12-08T10:29:13;100636.50;;;6.17;96.79
62708;BME280;48769;51.624;5.886;2022-12-08T10:31:38;100636.03;;;6.29;97.13
62708;BME280;48769;51.624;5.886;2022-12-08T10:34:21;100634.47;;;6.25;97.13
62708;BME280;48769;51.624;5.886;2022-12-08T10:36:55;100632.53;;;6.30;97.11
62708;BME280;48769;51.624;5.886;2022-12-08T10:39:37;100634.97;;;6.35;97.02
62708;BME280;48769;51.624;5.886;2022-12-08T10:47:24;100625.00;;;6.45;96.47
62708;BME280;48769;51.624;5.886;2022-12-08T10:52:45;100624.53;;;6.57;96.46
62708;BME280;48769;51.624;5.886;2022-12-08T10:55:19;100621.47;;;6.68;96.03
62708;BME280;48769;51.624;5.886;2022-12-08T10:57:45;100614.53;;;6.67;95.97
62708;BME280;48769;51.624;5.886;2022-12-08T11:00:15;100623.06;;;6.72;95.68
62708;BME280;48769;51.624;5.886;2022-12-08T11:02:53;100619.34;;;6.77;95.61
62708;BME280;48769;51.624;5.886;2022-12-08T11:05:20;100618.41;;;6.78;95.33
62708;BME280;48769;51.624;5.886;2022-12-08T11:07:48;100613.06;;;6.82;95.26
62708;BME280;48769;51.624;5.886;2022-12-08T11:10:20;100613.78;;;6.85;95.39
62708;BME280;48769;51.624;5.886;2022-12-08T11:12:51;100613.97;;;6.81;95.20
62708;BME280;48769;51.624;5.886;2022-12-08T11:15:16;100604.94;;;6.88;95.41
62708;BME280;48769;51.624;5.886;2022-12-08T11:17:42;100598.41;;;6.98;95.42
62708;BME280;48769;51.624;5.886;2022-12-08T11:22:43;100603.03;;;6.91;95.44
62708;BME280;48769;51.624;5.886;2022-12-08T11:25:11;100600.97;;;6.99;95.64
62708;BME280;48769;51.624;5.886;2022-12-08T11:27:42;100597.91;;;7.10;95.87
62708;BME280;48769;51.624;5.886;2022-12-08T11:30:17;100583.72;;;7.14;95.23
62708;BME280;48769;51.624;5.886;2022-12-08T11:32:44;100577.69;;;7.12;95.55
62708;BME280;48769;51.624;5.886;2022-12-08T11:35:18;100579.19;;;7.18;95.75
62708;BME280;48769;51.624;5.886;2022-12-08T11:37:45;100578.34;;;7.17;95.51
62708;BME280;48769;51.624;5.886;2022-12-08T11:40:19;100578.09;;;7.23;95.76
62708;BME280;48769;51.624;5.886;2022-12-08T11:43:16;100582.63;;;7.20;95.10
62708;BME280;48769;51.624;5.886;2022-12-08T11:45:43;100581.38;;;7.29;95.80
62708;BME280;48769;51.624;5.886;2022-12-08T11:48:17;100574.81;;;7.39;95.08
62708;BME280;48769;51.624;5.886;2022-12-08T11:50:50;100576.00;;;7.52;95.48
62708;BME280;48769;51.624;5.886;2022-12-08T11:53:26;100568.63;;;7.40;94.45
62708;BME280;48769;51.624;5.886;2022-12-08T11:55:59;100567.38;;;7.48;94.42
62708;BME280;48769;51.624;5.886;2022-12-08T11:58:40;100571.25;;;7.60;94.67
62708;BME280;48769;51.624;5.886;2022-12-08T12:01:22;100567.84;;;7.58;94.58
62708;BME280;48769;51.624;5.886;2022-12-08T12:04:14;100567.38;;;7.48;93.65
62708;BME280;48769;51.624;5.886;2022-12-08T12:07:16;100565.47;;;7.52;93.19
62708;BME280;48769;51.624;5.886;2022-12-08T12:09:54;100564.41;;;7.56;93.69
62708;BME280;48769;51.624;5.886;2022-12-08T12:18:04;100569.75;;;7.55;93.07
62708;BME280;48769;51.624;5.886;2022-12-08T12:20:51;100553.44;;;7.46;93.01
62708;BME280;48769;51.624;5.886;2022-12-08T12:26:04;100562.88;;;7.32;93.42
62708;BME280;48769;51.624;5.886;2022-12-08T12:28:39;100558.91;;;7.21;92.91
62708;BME280;48769;51.624;5.886;2022-12-08T12:31:09;100561.38;;;7.24;93.51
62708;BME280;48769;51.624;5.886;2022-12-08T12:33:37;100560.81;;;7.38;93.69
62708;BME280;48769;51.624;5.886;2022-12-08T12:36:05;100556.41;;;7.39;93.07
62708;BME280;48769;51.624;5.886;2022-12-08T12:38:37;100554.44;;;7.23;92.93
62708;BME280;48769;51.624;5.886;2022-12-08T12:41:25;100562.44;;;7.20;92.87
62708;BME280;48769;51.624;5.886;2022-12-08T12:46:53;100547.72;;;6.96;93.15
62708;BME280;48769;51.624;5.886;2022-12-08T12:52:51;100550.88;;;7.04;93.23
62708;BME280;48769;51.624;5.886;2022-12-08T12:59:49;100544.66;;;6.85;92.82
62708;BME280;48769;51.624;5.886;2022-12-08T13:07:54;100543.22;;;6.77;93.48
62708;BME280;48769;51.624;5.886;2022-12-08T13:10:24;100545.03;;;6.75;93.74
62708;BME280;48769;51.624;5.886;2022-12-08T13:18:31;100542.13;;;6.83;93.90
62708;BME280;48769;51.624;5.886;2022-12-08T13:21:03;100542.72;;;6.90;94.00
62708;BME280;48769;51.624;5.886;2022-12-08T13:33:59;100537.22;;;6.96;94.83
62708;BME280;48769;51.624;5.886;2022-12-08T13:36:30;100523.75;;;7.03;94.35
62708;BME280;48769;51.624;5.886;2022-12-08T13:38:58;100527.22;;;7.04;93.92
62708;BME280;48769;51.624;5.886;2022-12-08T13:41:49;100531.97;;;6.96;93.79
62708;BME280;48769;51.624;5.886;2022-12-08T13:44:26;100524.09;;;6.96;94.21
62708;BME280;48769;51.624;5.886;2022-12-08T13:46:56;100518.16;;;6.91;94.13
62708;BME280;48769;51.624;5.886;2022-12-08T13:49:26;100518.59;;;7.02;94.41
62708;BME280;48769;51.624;5.886;2022-12-08T13:51:53;100514.31;;;6.99;93.40
62708;BME280;48769;51.624;5.886;2022-12-08T13:54:26;100506.47;;;6.98;93.93
62708;BME280;48769;51.624;5.886;2022-12-08T13:56:54;100505.72;;;6.96;93.86
62708;BME280;48769;51.624;5.886;2022-12-08T13:59:29;100501.19;;;6.99;93.97
62708;BME280;48769;51.624;5.886;2022-12-08T14:02:02;100501.22;;;6.98;93.71
62708;BME280;48769;51.624;5.886;2022-12-08T14:04:28;100498.47;;;7.01;94.04
62708;BME280;48769;51.624;5.886;2022-12-08T14:06:59;100495.34;;;6.93;93.73
62708;BME280;48769;51.624;5.886;2022-12-08T14:09:33;100489.16;;;6.94;94.14
62708;BME280;48769;51.624;5.886;2022-12-08T14:12:04;100492.44;;;6.99;94.00
62708;BME280;48769;51.624;5.886;2022-12-08T14:14:41;100482.72;;;7.01;93.63
62708;BME280;48769;51.624;5.886;2022-12-08T14:17:12;100474.19;;;6.96;93.54
62708;BME280;48769;51.624;5.886;2022-12-08T14:19:38;100478.09;;;6.86;93.67
62708;BME280;48769;51.624;5.886;2022-12-08T14:22:11;100485.06;;;6.87;93.54
62708;BME280;48769;51.624;5.886;2022-12-08T14:24:38;100506.13;;;6.85;93.92